createdAt,value
2018-04-22T00:01:26.292Z,15.06
2018-04-22T00:03:53.610Z,15.07
2018-04-22T00:06:20.700Z,15.10
2018-04-22T00:08:47.982Z,15.11
2018-04-22T00:11:14.798Z,15.05
2018-04-22T00:13:41.519Z,14.96
2018-04-22T00:16:09.736Z,14.92
2018-04-22T00:18:37.605Z,14.90
2018-04-22T00:21:05.648Z,14.88
2018-04-22T00:23:32.987Z,14.89
2018-04-22T00:26:01.091Z,14.86
2018-04-22T00:28:30.440Z,14.83
2018-04-22T00:30:58.416Z,14.80
2018-04-22T00:33:26.776Z,14.79
2018-04-22T00:35:54.730Z,14.73
2018-04-22T00:38:22.152Z,14.71
2018-04-22T00:40:49.263Z,14.74
2018-04-22T00:43:16.603Z,14.76
2018-04-22T00:45:45.275Z,14.78
2018-04-22T00:48:13.555Z,14.80
2018-04-22T00:50:41.081Z,14.74
2018-04-22T00:53:10.012Z,14.72
2018-04-22T00:55:38.572Z,14.64
2018-04-22T00:58:06.727Z,14.66
2018-04-22T01:00:36.798Z,14.59
2018-04-22T01:03:03.865Z,14.52
2018-04-22T01:05:31.652Z,14.52
2018-04-22T01:08:00.499Z,14.51
2018-04-22T01:10:28.219Z,14.49
2018-04-22T01:12:55.778Z,14.46
2018-04-22T01:15:23.992Z,14.39
2018-04-22T01:17:50.873Z,14.37
2018-04-22T01:20:18.544Z,14.36
2018-04-22T01:22:46.421Z,14.34
2018-04-22T01:25:13.638Z,14.27
2018-04-22T01:27:41.373Z,14.24
2018-04-22T01:30:10.741Z,14.22
2018-04-22T01:32:39.377Z,14.19
2018-04-22T01:35:07.201Z,14.13
2018-04-22T01:37:35.043Z,14.11
2018-04-22T01:40:01.733Z,14.09
2018-04-22T01:42:29.638Z,14.10
2018-04-22T01:44:56.423Z,14.09
2018-04-22T01:47:23.541Z,14.07
2018-04-22T01:49:51.305Z,14.04
2018-04-22T01:52:18.914Z,14.06
2018-04-22T01:54:47.901Z,14.10
2018-04-22T01:57:15.042Z,14.12
2018-04-22T01:59:44.920Z,14.11
2018-04-22T02:02:13.238Z,14.08
2018-04-22T02:04:41.413Z,14.06
2018-04-22T02:07:08.432Z,14.04
2018-04-22T02:09:35.109Z,14.00
2018-04-22T02:12:03.883Z,13.92
2018-04-22T02:14:31.711Z,13.88
2018-04-22T02:17:00.415Z,13.92
2018-04-22T02:19:29.311Z,13.94
2018-04-22T02:21:56.675Z,13.98
2018-04-22T02:24:23.355Z,13.94
2018-04-22T02:26:51.929Z,13.94
2018-04-22T02:29:19.972Z,13.89
2018-04-22T02:31:48.276Z,13.84
2018-04-22T02:34:15.992Z,13.73
2018-04-22T02:36:42.976Z,13.72
2018-04-22T02:39:10.059Z,13.76
2018-04-22T02:41:37.926Z,13.74
2018-04-22T02:44:05.477Z,13.69
2018-04-22T02:46:32.281Z,13.75
2018-04-22T02:49:00.883Z,13.73
2018-04-22T02:51:28.793Z,13.70
2018-04-22T02:53:59.696Z,13.65
2018-04-22T02:56:26.798Z,13.62
2018-04-22T02:58:55.697Z,13.62
2018-04-22T03:01:24.422Z,13.62
2018-04-22T03:03:52.627Z,13.61
2018-04-22T03:06:20.125Z,13.56
2018-04-22T03:08:48.228Z,13.56
2018-04-22T03:11:16.445Z,13.53
2018-04-22T03:13:44.932Z,13.57
2018-04-22T03:16:12.492Z,13.54
2018-04-22T03:18:40.667Z,13.49
2018-04-22T03:21:08.085Z,13.54
2018-04-22T03:23:35.266Z,13.62
2018-04-22T03:26:02.994Z,13.59
2018-04-22T03:28:30.865Z,13.59
2018-04-22T03:31:00.108Z,13.61
2018-04-22T03:33:27.875Z,13.63
2018-04-22T03:35:55.435Z,13.60
2018-04-22T03:38:23.490Z,13.64
2018-04-22T03:40:50.232Z,13.61
2018-04-22T03:43:16.924Z,13.56
2018-04-22T03:45:45.243Z,13.45
2018-04-22T03:48:12.157Z,13.40
2018-04-22T03:53:13.340Z,13.43
2018-04-22T03:55:40.689Z,13.44
2018-04-22T03:58:09.986Z,13.49
2018-04-22T04:00:37.777Z,13.55
2018-04-22T04:03:04.634Z,13.51
2018-04-22T04:05:31.371Z,13.48
2018-04-22T04:07:59.258Z,13.53
2018-04-22T04:10:26.932Z,13.60
2018-04-22T04:12:55.311Z,13.60
2018-04-22T04:15:22.891Z,13.56
2018-04-22T04:18:03.867Z,13.62
2018-04-22T04:20:43.315Z,13.57
2018-04-22T04:23:10.926Z,13.59
2018-04-22T04:25:53.698Z,13.55
2018-04-22T04:28:22.561Z,13.56
2018-04-22T04:30:49.767Z,13.57
2018-04-22T04:33:17.043Z,13.61
2018-04-22T04:35:44.656Z,13.64
2018-04-22T04:38:13.377Z,13.71
2018-04-22T04:40:44.116Z,13.77
2018-04-22T04:43:11.363Z,13.78
2018-04-22T04:45:46.271Z,13.79
2018-04-22T04:48:13.566Z,13.83
2018-04-22T04:50:41.993Z,13.81
2018-04-22T04:53:10.278Z,13.86
2018-04-22T04:55:37.998Z,13.88
2018-04-22T04:58:05.596Z,13.94
2018-04-22T05:00:32.360Z,13.98
2018-04-22T05:02:59.143Z,14.03
2018-04-22T05:05:27.296Z,14.09
2018-04-22T05:07:55.295Z,14.10
2018-04-22T05:10:23.051Z,14.13
2018-04-22T05:12:53.173Z,14.20
2018-04-22T05:15:20.081Z,14.28
2018-04-22T05:17:47.624Z,14.32
2018-04-22T05:20:15.620Z,14.39
2018-04-22T05:22:45.161Z,14.45
2018-04-22T05:25:13.749Z,14.28
2018-04-22T05:27:41.691Z,14.51
2018-04-22T05:30:10.207Z,14.71
2018-04-22T05:32:37.129Z,14.80
2018-04-22T05:35:04.795Z,14.88
2018-04-22T05:37:34.728Z,14.88
2018-04-22T05:40:02.758Z,15.03
2018-04-22T05:42:31.062Z,14.96
2018-04-22T05:44:59.255Z,15.09
2018-04-22T05:47:26.910Z,15.24
2018-04-22T05:49:54.868Z,15.39
2018-04-22T05:52:22.363Z,15.51
2018-04-22T05:54:50.572Z,15.60
2018-04-22T05:57:18.982Z,15.69
2018-04-22T05:59:46.940Z,15.78
2018-04-22T06:02:14.549Z,15.82
2018-04-22T06:04:43.170Z,15.91
2018-04-22T06:07:10.527Z,15.99
2018-04-22T06:09:38.088Z,16.05
2018-04-22T06:12:05.395Z,16.08
2018-04-22T06:14:34.251Z,16.24
2018-04-22T06:17:01.812Z,16.32
2018-04-22T06:19:30.995Z,16.44
2018-04-22T06:21:58.830Z,16.43
2018-04-22T06:24:26.375Z,16.55
2018-04-22T06:26:53.478Z,16.61
2018-04-22T06:29:20.285Z,16.69
2018-04-22T06:31:48.050Z,16.60
2018-04-22T06:34:15.251Z,16.55
2018-04-22T06:36:43.008Z,16.73
2018-04-22T06:39:11.312Z,16.83
2018-04-22T06:41:38.514Z,17.06
2018-04-22T06:44:05.790Z,17.03
2018-04-22T06:46:33.709Z,17.11
2018-04-22T06:49:07.018Z,17.24
2018-04-22T06:51:33.541Z,17.27
2018-04-22T06:54:01.673Z,17.23
2018-04-22T06:56:29.849Z,17.32
2018-04-22T06:58:57.161Z,17.33
2018-04-22T07:01:25.010Z,17.21
2018-04-22T07:03:55.352Z,17.15
2018-04-22T07:06:22.586Z,17.17
2018-04-22T07:08:49.942Z,17.26
2018-04-22T07:11:16.979Z,17.33
2018-04-22T07:13:47.165Z,17.53
2018-04-22T07:16:15.217Z,17.54
2018-04-22T07:18:43.261Z,17.63
2018-04-22T07:21:17.016Z,17.72
2018-04-22T07:23:45.933Z,17.83
2018-04-22T07:26:13.108Z,17.86
2018-04-22T07:28:41.263Z,17.87
2018-04-22T07:31:11.825Z,17.88
2018-04-22T07:33:39.739Z,17.91
2018-04-22T07:36:13.439Z,18.11
2018-04-22T07:38:40.735Z,18.20
2018-04-22T07:41:08.752Z,18.24
2018-04-22T07:43:38.756Z,18.34
2018-04-22T07:46:07.905Z,18.33
2018-04-22T07:48:35.192Z,18.20
2018-04-22T07:51:03.023Z,18.32
2018-04-22T07:53:30.836Z,18.29
2018-04-22T07:56:00.230Z,18.50
2018-04-22T07:58:29.010Z,18.60
2018-04-22T08:00:56.241Z,18.70
2018-04-22T08:03:24.546Z,18.41
2018-04-22T08:05:51.691Z,18.57
2018-04-22T08:08:20.889Z,18.75
2018-04-22T08:10:47.536Z,18.80
2018-04-22T08:13:17.418Z,19.02
2018-04-22T08:15:45.446Z,19.12
2018-04-22T08:18:12.412Z,19.34
2018-04-22T08:20:40.294Z,19.29
2018-04-22T08:23:08.454Z,19.33
2018-04-22T08:25:35.756Z,19.31
2018-04-22T08:28:03.615Z,19.45
2018-04-22T08:30:31.955Z,19.54
2018-04-22T08:33:01.040Z,19.46
2018-04-22T08:35:28.007Z,19.51
2018-04-22T08:37:56.437Z,19.64
2018-04-22T08:40:25.379Z,19.93
2018-04-22T08:42:56.600Z,20.06
2018-04-22T08:45:25.380Z,20.09
2018-04-22T08:47:56.064Z,20.25
2018-04-22T08:50:24.427Z,20.30
2018-04-22T08:52:52.230Z,20.33
2018-04-22T08:55:19.766Z,20.36
2018-04-22T08:57:47.220Z,20.39
2018-04-22T09:00:15.449Z,20.42
2018-04-22T09:02:42.806Z,20.50
2018-04-22T09:05:11.557Z,20.56
2018-04-22T09:07:40.818Z,20.61
2018-04-22T09:10:08.760Z,20.44
2018-04-22T09:12:36.341Z,20.47
2018-04-22T09:15:04.684Z,20.55
2018-04-22T09:17:31.408Z,20.68
2018-04-22T09:20:00.039Z,20.66
2018-04-22T09:22:28.273Z,20.43
2018-04-22T09:24:56.636Z,20.53
2018-04-22T09:27:23.713Z,20.72
2018-04-22T09:29:50.695Z,20.87
2018-04-22T09:32:18.038Z,20.89
2018-04-22T09:34:46.293Z,21.01
2018-04-22T09:37:14.122Z,21.11
2018-04-22T09:39:42.734Z,21.08
2018-04-22T09:42:10.744Z,21.19
2018-04-22T09:44:38.886Z,21.23
2018-04-22T09:47:06.194Z,21.29
2018-04-22T09:49:35.455Z,21.36
2018-04-22T09:52:05.448Z,21.42
2018-04-22T09:54:32.638Z,21.39
2018-04-22T09:57:00.085Z,21.44
2018-04-22T09:59:28.196Z,21.60
2018-04-22T10:01:59.701Z,21.58
2018-04-22T10:04:29.187Z,21.62
2018-04-22T10:06:57.004Z,21.67
2018-04-22T10:09:25.937Z,21.74
2018-04-22T10:11:52.665Z,21.76
2018-04-22T10:14:19.633Z,21.82
2018-04-22T10:16:49.747Z,21.85
2018-04-22T10:19:20.028Z,21.92
2018-04-22T10:21:51.916Z,22.04
2018-04-22T10:24:24.061Z,22.04
2018-04-22T10:26:57.008Z,22.10
2018-04-22T10:29:32.270Z,22.08
2018-04-22T10:32:04.516Z,22.11
2018-04-22T10:34:35.949Z,22.08
2018-04-22T10:37:04.016Z,22.22
2018-04-22T10:39:34.029Z,22.34
2018-04-22T10:42:03.114Z,22.33
2018-04-22T10:44:30.528Z,22.33
2018-04-22T10:46:58.786Z,22.29
2018-04-22T10:49:25.625Z,22.31
2018-04-22T10:51:55.360Z,22.34
2018-04-22T10:54:29.997Z,22.43
2018-04-22T10:57:00.631Z,22.55
2018-04-22T10:59:32.064Z,22.51
2018-04-22T11:02:00.986Z,22.59
2018-04-22T11:04:31.348Z,22.50
2018-04-22T11:07:01.313Z,22.69
2018-04-22T11:09:30.183Z,22.67
2018-04-22T11:11:59.866Z,22.72
2018-04-22T11:14:29.717Z,22.79
2018-04-22T11:17:01.645Z,22.67
2018-04-22T11:19:38.884Z,22.70
2018-04-22T11:22:10.005Z,22.82
2018-04-22T11:24:40.476Z,22.90
2018-04-22T11:27:11.613Z,22.92
2018-04-22T11:29:42.915Z,23.03
2018-04-22T11:32:14.303Z,23.00
2018-04-22T11:34:44.213Z,23.09
2018-04-22T11:37:14.446Z,22.96
2018-04-22T11:39:45.158Z,23.06
2018-04-22T11:42:14.402Z,23.12
2018-04-22T11:44:48.326Z,23.25
2018-04-22T11:47:21.031Z,23.23
2018-04-22T11:49:54.223Z,23.24
2018-04-22T11:52:24.693Z,23.28
2018-04-22T11:54:59.169Z,23.30
2018-04-22T11:57:30.550Z,23.28
2018-04-22T12:00:02.853Z,23.33
2018-04-22T12:02:32.771Z,23.46
2018-04-22T12:05:02.944Z,23.36
2018-04-22T12:07:30.189Z,23.47
2018-04-22T12:09:57.668Z,23.62
2018-04-22T12:12:25.882Z,23.74
2018-04-22T12:14:56.952Z,23.77
2018-04-22T12:17:24.772Z,23.73
2018-04-22T12:19:53.751Z,23.77
2018-04-22T12:22:21.857Z,23.71
2018-04-22T12:24:54.972Z,23.71
2018-04-22T12:27:22.808Z,23.78
2018-04-22T12:29:50.611Z,23.86
2018-04-22T12:32:21.660Z,23.88
2018-04-22T12:34:53.075Z,23.93
2018-04-22T12:37:21.439Z,23.90
2018-04-22T12:39:48.657Z,23.87
2018-04-22T12:42:18.428Z,23.90
2018-04-22T12:44:46.698Z,23.91
2018-04-22T12:47:17.581Z,23.88
2018-04-22T12:49:45.075Z,23.86
2018-04-22T12:52:14.160Z,23.96
2018-04-22T12:54:44.323Z,23.91
2018-04-22T12:57:12.560Z,23.93
2018-04-22T12:59:39.120Z,24.00
2018-04-22T13:02:06.624Z,23.93
2018-04-22T13:04:34.756Z,23.90
2018-04-22T13:07:02.079Z,23.72
2018-04-22T13:09:31.452Z,23.83
2018-04-22T13:12:00.576Z,23.88
2018-04-22T13:14:27.786Z,23.98
2018-04-22T13:16:56.748Z,24.01
2018-04-22T13:19:26.976Z,24.10
2018-04-22T13:21:54.283Z,24.15
2018-04-22T13:24:22.117Z,24.21
2018-04-22T13:26:49.511Z,24.23
2018-04-22T13:29:16.212Z,24.22
2018-04-22T13:31:45.075Z,24.29
2018-04-22T13:34:13.342Z,24.37
2018-04-22T13:36:42.248Z,24.43
2018-04-22T13:39:09.566Z,24.32
2018-04-22T13:41:38.226Z,24.32
2018-04-22T13:44:06.824Z,24.34
2018-04-22T13:46:34.411Z,24.48
2018-04-22T13:49:02.486Z,24.56
2018-04-22T13:51:31.145Z,24.63
2018-04-22T13:53:59.432Z,24.58
2018-04-22T13:56:27.798Z,24.38
2018-04-22T13:58:55.157Z,24.42
2018-04-22T14:01:22.607Z,24.44
2018-04-22T14:03:50.396Z,24.48
2018-04-22T14:06:17.683Z,24.55
2018-04-22T14:08:45.119Z,24.65
2018-04-22T14:11:13.829Z,24.71
2018-04-22T14:13:40.847Z,24.77
2018-04-22T14:16:07.585Z,24.75
2018-04-22T14:18:34.300Z,24.74
2018-04-22T14:21:01.466Z,24.82
2018-04-22T14:23:31.575Z,24.79
2018-04-22T14:25:59.090Z,24.82
2018-04-22T14:28:27.644Z,24.88
2018-04-22T14:30:54.284Z,24.82
2018-04-22T14:33:21.776Z,24.87
2018-04-22T14:35:50.346Z,24.90
2018-04-22T14:38:17.524Z,24.92
2018-04-22T14:40:45.317Z,24.74
2018-04-22T14:43:12.529Z,24.89
2018-04-22T14:45:52.914Z,24.92
2018-04-22T14:48:20.572Z,24.91
2018-04-22T14:50:47.322Z,24.93
2018-04-22T14:53:14.778Z,24.91
2018-04-22T14:55:43.283Z,24.95
2018-04-22T14:58:12.356Z,24.93
2018-04-22T15:00:42.128Z,24.88
2018-04-22T15:03:09.696Z,24.92
2018-04-22T15:05:37.502Z,24.90
2018-04-22T15:08:05.050Z,24.88
2018-04-22T15:10:32.920Z,24.93
2018-04-22T15:13:01.573Z,24.82
2018-04-22T15:15:29.868Z,24.89
2018-04-22T15:17:58.036Z,24.93
2018-04-22T15:20:25.850Z,24.96
2018-04-22T15:22:53.451Z,24.87
2018-04-22T15:25:23.076Z,24.88
2018-04-22T15:27:50.471Z,24.97
2018-04-22T15:30:17.695Z,24.93
2018-04-22T15:32:44.608Z,24.88
2018-04-22T15:35:12.092Z,24.87
2018-04-22T15:37:40.600Z,24.92
2018-04-22T15:40:08.565Z,24.95
2018-04-22T15:42:37.907Z,24.99
2018-04-22T15:45:07.915Z,24.92
2018-04-22T15:47:34.918Z,24.94
2018-04-22T15:50:04.345Z,25.01
2018-04-22T15:52:31.267Z,24.97
2018-04-22T15:54:58.500Z,24.96
2018-04-22T15:57:26.326Z,24.91
2018-04-22T15:59:55.773Z,24.91
2018-04-22T16:02:25.815Z,24.88
2018-04-22T16:07:35.660Z,24.76
2018-04-22T16:10:02.987Z,24.71
2018-04-22T16:12:29.915Z,24.79
2018-04-22T16:14:56.929Z,24.77
2018-04-22T16:17:25.449Z,24.70
2018-04-22T16:19:52.436Z,24.65
2018-04-22T16:22:20.051Z,24.62
2018-04-22T16:24:47.713Z,24.60
2018-04-22T16:27:16.105Z,24.54
2018-04-22T16:36:16.564Z,24.36
2018-04-22T16:38:52.337Z,24.22
2018-04-22T16:41:19.092Z,24.21
2018-04-22T16:43:47.546Z,24.13
2018-04-22T16:46:14.271Z,24.04
2018-04-22T16:48:40.972Z,23.96
2018-04-22T16:51:08.553Z,23.93
2018-04-22T16:53:36.304Z,23.89
2018-04-22T16:56:04.912Z,23.79
2018-04-22T16:58:32.015Z,23.72
2018-04-22T17:00:59.025Z,23.65
2018-04-22T17:03:29.301Z,23.70
2018-04-22T17:05:58.460Z,23.73
2018-04-22T17:08:24.968Z,23.69
2018-04-22T17:10:51.863Z,23.54
2018-04-22T17:13:23.700Z,23.48
2018-04-22T17:15:53.325Z,23.43
2018-04-22T17:18:21.907Z,23.40
2018-04-22T17:20:49.953Z,23.36
2018-04-22T17:23:21.123Z,23.28
2018-04-22T17:25:51.561Z,23.22
2018-04-22T17:28:22.803Z,23.16
2018-04-22T17:30:49.697Z,23.05
2018-04-22T17:33:19.316Z,22.95
2018-04-22T17:35:46.075Z,22.95
2018-04-22T17:38:14.718Z,22.91
2018-04-22T17:40:43.056Z,22.88
2018-04-22T17:43:10.931Z,22.84
2018-04-22T17:45:37.549Z,22.79
2018-04-22T17:48:07.582Z,22.74
2018-04-22T17:50:35.435Z,22.70
2018-04-22T17:53:02.603Z,22.65
2018-04-22T17:55:30.096Z,22.60
2018-04-22T17:57:57.019Z,22.54
2018-04-22T18:00:25.133Z,22.48
2018-04-22T18:02:51.895Z,22.44
2018-04-22T18:05:19.372Z,22.38
2018-04-22T18:07:47.222Z,22.34
2018-04-22T18:10:13.905Z,22.31
2018-04-22T18:12:40.700Z,22.28
2018-04-22T18:15:07.470Z,22.23
2018-04-22T18:17:36.259Z,22.19
2018-04-22T18:20:03.545Z,22.18
2018-04-22T18:22:33.250Z,22.13
2018-04-22T18:25:03.436Z,22.13
2018-04-22T18:27:30.624Z,22.08
2018-04-22T18:29:57.947Z,22.03
2018-04-22T18:32:25.040Z,21.97
2018-04-22T18:34:52.030Z,21.94
2018-04-22T18:37:19.245Z,21.90
2018-04-22T18:39:47.615Z,21.87
2018-04-22T18:42:16.317Z,21.79
2018-04-22T18:44:47.361Z,21.78
2018-04-22T18:47:16.597Z,21.71
2018-04-22T18:49:45.269Z,21.66
2018-04-22T18:52:12.668Z,21.62
2018-04-22T18:54:41.888Z,21.57
2018-04-22T18:57:10.255Z,21.54
2018-04-22T18:59:37.227Z,21.52
2018-04-22T19:02:05.384Z,21.45
2018-04-22T19:04:33.980Z,21.38
2018-04-22T19:07:01.188Z,21.28
2018-04-22T19:09:28.820Z,21.24
2018-04-22T19:11:56.472Z,21.18
2018-04-22T19:14:23.216Z,21.15
2018-04-22T19:16:52.170Z,21.10
2018-04-22T19:19:20.111Z,21.06
2018-04-22T19:21:47.378Z,21.00
2018-04-22T19:24:15.897Z,20.94
2018-04-22T19:26:42.947Z,20.89
2018-04-22T19:29:09.577Z,20.85
2018-04-22T19:31:36.657Z,20.82
2018-04-22T19:34:04.084Z,20.69
2018-04-22T19:36:30.866Z,20.63
2018-04-22T19:38:58.709Z,20.58
2018-04-22T19:41:25.619Z,20.52
2018-04-22T19:43:52.703Z,20.43
2018-04-22T19:46:20.874Z,20.40
2018-04-22T19:48:48.928Z,20.33
2018-04-22T19:51:16.688Z,20.29
2018-04-22T19:53:44.097Z,20.22
2018-04-22T19:56:11.790Z,20.14
2018-04-22T19:58:39.627Z,20.11
2018-04-22T20:01:08.042Z,20.07
2018-04-22T20:03:37.867Z,20.07
2018-04-22T20:06:05.808Z,20.05
2018-04-22T20:08:32.841Z,20.05
2018-04-22T20:11:00.395Z,20.03
2018-04-22T20:13:28.436Z,20.04
2018-04-22T20:15:56.983Z,20.04
2018-04-22T20:18:25.768Z,20.03
2018-04-22T20:20:54.406Z,19.98
2018-04-22T20:23:23.220Z,19.94
2018-04-22T20:25:54.354Z,19.84
2018-04-22T20:28:21.814Z,19.86
2018-04-22T20:30:51.607Z,19.86
2018-04-22T20:33:19.306Z,19.80
2018-04-22T20:35:47.521Z,19.78
2018-04-22T20:38:14.723Z,19.75
2018-04-22T20:40:45.485Z,19.70
2018-04-22T20:43:13.890Z,19.65
2018-04-22T20:45:44.599Z,19.64
2018-04-22T20:48:19.144Z,19.59
2018-04-22T20:50:53.575Z,19.56
2018-04-22T20:53:23.479Z,19.55
2018-04-22T20:55:53.030Z,19.52
2018-04-22T20:58:20.139Z,19.52
2018-04-22T21:00:48.731Z,19.51
2018-04-22T21:03:17.932Z,19.49
2018-04-22T21:05:46.031Z,19.46
2018-04-22T21:08:14.324Z,19.44
2018-04-22T21:10:42.578Z,19.43
2018-04-22T21:13:09.371Z,19.43
2018-04-22T21:15:37.088Z,19.42
2018-04-22T21:18:06.720Z,19.38
2018-04-22T21:20:36.564Z,19.32
2018-04-22T21:23:05.881Z,19.28
2018-04-22T21:25:35.229Z,19.24
2018-04-22T21:28:04.716Z,19.18
2018-04-22T21:30:31.868Z,19.15
2018-04-22T21:33:03.725Z,19.12
2018-04-22T21:35:30.923Z,19.07
2018-04-22T21:37:57.805Z,19.01
2018-04-22T21:40:26.891Z,18.96
2018-04-22T21:42:55.074Z,18.96
2018-04-22T21:45:21.913Z,18.94
2018-04-22T21:47:49.823Z,18.95
2018-04-22T21:50:17.172Z,18.93
2018-04-22T21:52:44.531Z,18.93
2018-04-22T21:55:11.560Z,18.95
2018-04-22T21:57:40.944Z,18.92
2018-04-22T22:00:09.265Z,18.83
2018-04-22T22:02:40.340Z,18.74
2018-04-22T22:05:10.925Z,18.71
2018-04-22T22:07:40.135Z,18.62
2018-04-22T22:10:07.164Z,18.54
2018-04-22T22:12:35.675Z,18.47
2018-04-22T22:15:03.762Z,18.42
2018-04-22T22:17:31.976Z,18.44
2018-04-22T22:20:03.972Z,18.42
2018-04-22T22:22:32.887Z,18.40
2018-04-22T22:25:01.865Z,18.36
2018-04-22T22:27:30.058Z,18.23
2018-04-22T22:30:00.719Z,18.22
2018-04-22T22:32:27.794Z,18.16
2018-04-22T22:34:56.955Z,18.10
2018-04-22T22:37:29.105Z,18.04
2018-04-22T22:40:00.111Z,18.06
2018-04-22T22:42:28.401Z,18.03
2018-04-22T22:44:58.648Z,18.02
2018-04-22T22:47:27.260Z,18.04
2018-04-22T22:49:55.511Z,18.05
2018-04-22T22:52:22.525Z,18.07
2018-04-22T22:54:50.156Z,18.03
2018-04-22T22:57:17.171Z,18.01
2018-04-22T22:59:45.749Z,18.01
2018-04-22T23:02:13.806Z,17.98
2018-04-22T23:04:41.536Z,18.00
2018-04-22T23:07:09.364Z,17.97
2018-04-22T23:09:37.412Z,17.93
2018-04-22T23:12:06.317Z,17.93
2018-04-22T23:14:34.633Z,17.86
2018-04-22T23:30:04.330Z,18.36
2018-04-22T23:32:30.778Z,18.24
2018-04-22T23:34:57.290Z,18.09
2018-04-22T23:37:23.745Z,17.99
2018-04-22T23:39:50.240Z,17.85
2018-04-22T23:42:16.780Z,17.72
2018-04-22T23:44:43.282Z,17.63
2018-04-22T23:47:09.808Z,17.59
2018-04-22T23:49:36.235Z,17.50
2018-04-22T23:52:02.743Z,17.47
2018-04-22T23:54:29.204Z,17.42
2018-04-22T23:56:55.641Z,17.41
2018-04-22T23:59:22.149Z,17.36
